sensor_id;sensor_type;location;lat;lon;timestamp;temperature;humidity
19256;DHT22;9762;52.490;13.410;2023-01-29T00:01:33;4.30;90.90
19256;DHT22;9762;52.490;13.410;2023-01-29T00:03:58;4.30;91.30
19256;DHT22;9762;52.490;13.410;2023-01-29T00:06:24;4.30;91.00
19256;DHT22;9762;52.490;13.410;2023-01-29T00:08:50;4.30;90.90
19256;DHT22;9762;52.490;13.410;2023-01-29T00:11:15;4.30;90.90
19256;DHT22;9762;52.490;13.410;2023-01-29T00:13:42;4.30;90.90
19256;DHT22;9762;52.490;13.410;2023-01-29T00:16:08;4.30;90.90
19256;DHT22;9762;52.490;13.410;2023-01-29T00:18:37;4.30;91.40
19256;DHT22;9762;52.490;13.410;2023-01-29T00:21:07;4.30;91.20
19256;DHT22;9762;52.490;13.410;2023-01-29T00:23:32;4.30;91.10
19256;DHT22;9762;52.490;13.410;2023-01-29T00:26:01;4.30;91.10
19256;DHT22;9762;52.490;13.410;2023-01-29T00:28:26;4.30;91.10
19256;DHT22;9762;52.490;13.410;2023-01-29T00:30:52;4.20;91.10
19256;DHT22;9762;52.490;13.410;2023-01-29T00:33:18;4.20;91.40
19256;DHT22;9762;52.490;13.410;2023-01-29T00:35:43;4.20;91.50
19256;DHT22;9762;52.490;13.410;2023-01-29T00:38:09;4.20;91.40
19256;DHT22;9762;52.490;13.410;2023-01-29T00:40:37;4.30;91.50
19256;DHT22;9762;52.490;13.410;2023-01-29T00:43:22;4.30;91.40
19256;DHT22;9762;52.490;13.410;2023-01-29T00:46:06;4.30;91.50
19256;DHT22;9762;52.490;13.410;2023-01-29T00:48:33;4.30;91.90
19256;DHT22;9762;52.490;13.410;2023-01-29T00:50:59;4.30;91.80
19256;DHT22;9762;52.490;13.410;2023-01-29T00:53:24;4.30;91.60
19256;DHT22;9762;52.490;13.410;2023-01-29T00:55:50;4.30;91.60
19256;DHT22;9762;52.490;13.410;2023-01-29T00:58:16;4.40;91.50
19256;DHT22;9762;52.490;13.410;2023-01-29T01:00:47;4.40;91.60
19256;DHT22;9762;52.490;13.410;2023-01-29T01:03:13;4.40;91.40
19256;DHT22;9762;52.490;13.410;2023-01-29T01:05:39;4.40;91.50
19256;DHT22;9762;52.490;13.410;2023-01-29T01:08:07;4.40;91.60
19256;DHT22;9762;52.490;13.410;2023-01-29T01:11:04;4.40;91.70
19256;DHT22;9762;52.490;13.410;2023-01-29T01:13:32;4.40;91.80
19256;DHT22;9762;52.490;13.410;2023-01-29T01:15:58;4.40;91.80
19256;DHT22;9762;52.490;13.410;2023-01-29T01:18:24;4.40;91.80
19256;DHT22;9762;52.490;13.410;2023-01-29T01:20:56;4.50;91.80
19256;DHT22;9762;52.490;13.410;2023-01-29T01:23:24;4.50;92.00
19256;DHT22;9762;52.490;13.410;2023-01-29T01:25:49;4.40;91.90
19256;DHT22;9762;52.490;13.410;2023-01-29T01:28:15;4.40;92.00
19256;DHT22;9762;52.490;13.410;2023-01-29T01:30:41;4.40;92.10
19256;DHT22;9762;52.490;13.410;2023-01-29T01:33:07;4.40;92.20
19256;DHT22;9762;52.490;13.410;2023-01-29T01:35:32;4.40;92.20
19256;DHT22;9762;52.490;13.410;2023-01-29T01:37:58;4.40;92.30
19256;DHT22;9762;52.490;13.410;2023-01-29T01:40:25;4.40;92.50
19256;DHT22;9762;52.490;13.410;2023-01-29T01:42:53;4.40;92.50
19256;DHT22;9762;52.490;13.410;2023-01-29T01:45:31;4.40;92.50
19256;DHT22;9762;52.490;13.410;2023-01-29T01:50:36;4.50;92.60
19256;DHT22;9762;52.490;13.410;2023-01-29T01:53:09;4.40;93.00
19256;DHT22;9762;52.490;13.410;2023-01-29T01:55:46;4.50;92.60
19256;DHT22;9762;52.490;13.410;2023-01-29T01:58:19;4.50;92.60
19256;DHT22;9762;52.490;13.410;2023-01-29T02:00:47;4.50;92.70
19256;DHT22;9762;52.490;13.410;2023-01-29T02:03:12;4.60;92.60
19256;DHT22;9762;52.490;13.410;2023-01-29T02:05:58;4.60;92.90
19256;DHT22;9762;52.490;13.410;2023-01-29T02:08:48;4.70;92.60
19256;DHT22;9762;52.490;13.410;2023-01-29T02:11:36;4.70;92.50
19256;DHT22;9762;52.490;13.410;2023-01-29T02:14:01;4.70;92.50
19256;DHT22;9762;52.490;13.410;2023-01-29T02:16:28;4.70;92.40
19256;DHT22;9762;52.490;13.410;2023-01-29T02:18:54;4.70;92.60
19256;DHT22;9762;52.490;13.410;2023-01-29T02:26:25;4.70;92.60
19256;DHT22;9762;52.490;13.410;2023-01-29T02:29:22;4.70;92.50
19256;DHT22;9762;52.490;13.410;2023-01-29T02:34:46;4.80;92.60
19256;DHT22;9762;52.490;13.410;2023-01-29T02:44:33;4.80;92.40
19256;DHT22;9762;52.490;13.410;2023-01-29T02:55:20;4.80;92.40
19256;DHT22;9762;52.490;13.410;2023-01-29T02:57:48;4.80;92.50
19256;DHT22;9762;52.490;13.410;2023-01-29T03:00:19;4.80;92.60
19256;DHT22;9762;52.490;13.410;2023-01-29T03:06:14;4.80;92.40
19256;DHT22;9762;52.490;13.410;2023-01-29T03:08:32;4.80;92.50
19256;DHT22;9762;52.490;13.410;2023-01-29T03:11:09;4.80;92.50
19256;DHT22;9762;52.490;13.410;2023-01-29T03:13:45;4.90;92.40
19256;DHT22;9762;52.490;13.410;2023-01-29T03:16:17;4.80;92.40
19256;DHT22;9762;52.490;13.410;2023-01-29T03:18:59;4.80;92.50
19256;DHT22;9762;52.490;13.410;2023-01-29T03:21:32;4.80;92.70
19256;DHT22;9762;52.490;13.410;2023-01-29T03:24:47;4.80;92.80
19256;DHT22;9762;52.490;13.410;2023-01-29T03:27:39;4.80;92.70
19256;DHT22;9762;52.490;13.410;2023-01-29T03:30:24;4.90;92.90
19256;DHT22;9762;52.490;13.410;2023-01-29T03:33:11;4.90;92.80
19256;DHT22;9762;52.490;13.410;2023-01-29T03:35:42;4.90;92.80
19256;DHT22;9762;52.490;13.410;2023-01-29T03:38:12;5.00;92.80
19256;DHT22;9762;52.490;13.410;2023-01-29T03:40:48;5.00;92.90
19256;DHT22;9762;52.490;13.410;2023-01-29T03:46:38;4.90;92.90
19256;DHT22;9762;52.490;13.410;2023-01-29T03:49:12;4.90;93.00
19256;DHT22;9762;52.490;13.410;2023-01-29T03:51:43;4.90;93.00
19256;DHT22;9762;52.490;13.410;2023-01-29T03:54:41;4.90;93.00
19256;DHT22;9762;52.490;13.410;2023-01-29T03:57:18;4.80;93.20
19256;DHT22;9762;52.490;13.410;2023-01-29T03:59:54;4.80;93.20
19256;DHT22;9762;52.490;13.410;2023-01-29T04:02:26;4.80;93.20
19256;DHT22;9762;52.490;13.410;2023-01-29T04:04:56;4.80;93.30
19256;DHT22;9762;52.490;13.410;2023-01-29T04:07:23;4.70;93.40
19256;DHT22;9762;52.490;13.410;2023-01-29T04:10:08;4.70;93.60
19256;DHT22;9762;52.490;13.410;2023-01-29T04:12:57;4.70;93.50
19256;DHT22;9762;52.490;13.410;2023-01-29T04:15:26;4.70;93.50
19256;DHT22;9762;52.490;13.410;2023-01-29T04:17:54;4.70;93.70
19256;DHT22;9762;52.490;13.410;2023-01-29T04:20:21;4.70;93.70
19256;DHT22;9762;52.490;13.410;2023-01-29T04:22:49;4.70;93.80
19256;DHT22;9762;52.490;13.410;2023-01-29T04:25:19;4.60;93.90
19256;DHT22;9762;52.490;13.410;2023-01-29T04:28:27;4.60;94.00
19256;DHT22;9762;52.490;13.410;2023-01-29T04:40:08;4.50;94.50
19256;DHT22;9762;52.490;13.410;2023-01-29T04:42:09;4.50;94.80
19256;DHT22;9762;52.490;13.410;2023-01-29T04:47:17;4.50;95.20
19256;DHT22;9762;52.490;13.410;2023-01-29T04:52:23;4.50;95.40
19256;DHT22;9762;52.490;13.410;2023-01-29T05:00:08;4.50;95.60
19256;DHT22;9762;52.490;13.410;2023-01-29T05:02:39;4.60;95.50
19256;DHT22;9762;52.490;13.410;2023-01-29T05:05:07;4.60;95.50
19256;DHT22;9762;52.490;13.410;2023-01-29T05:07:35;4.60;95.70
19256;DHT22;9762;52.490;13.410;2023-01-29T05:10:04;4.60;95.70
19256;DHT22;9762;52.490;13.410;2023-01-29T05:12:30;4.60;95.80
19256;DHT22;9762;52.490;13.410;2023-01-29T05:15:01;4.60;96.10
19256;DHT22;9762;52.490;13.410;2023-01-29T05:17:27;4.70;96.10
19256;DHT22;9762;52.490;13.410;2023-01-29T05:19:54;4.70;96.20
19256;DHT22;9762;52.490;13.410;2023-01-29T05:22:20;4.70;96.20
19256;DHT22;9762;52.490;13.410;2023-01-29T05:24:48;4.80;96.50
19256;DHT22;9762;52.490;13.410;2023-01-29T05:27:23;4.70;96.60
19256;DHT22;9762;52.490;13.410;2023-01-29T05:30:10;4.70;97.00
19256;DHT22;9762;52.490;13.410;2023-01-29T05:32:35;4.70;97.10
19256;DHT22;9762;52.490;13.410;2023-01-29T05:35:01;4.80;97.30
19256;DHT22;9762;52.490;13.410;2023-01-29T05:37:27;4.80;97.50
19256;DHT22;9762;52.490;13.410;2023-01-29T05:39:52;4.80;97.60
19256;DHT22;9762;52.490;13.410;2023-01-29T05:42:18;4.80;97.70
19256;DHT22;9762;52.490;13.410;2023-01-29T05:44:44;4.80;97.90
19256;DHT22;9762;52.490;13.410;2023-01-29T05:47:09;4.80;98.00
19256;DHT22;9762;52.490;13.410;2023-01-29T05:49:35;4.80;97.90
19256;DHT22;9762;52.490;13.410;2023-01-29T05:52:00;4.80;97.90
19256;DHT22;9762;52.490;13.410;2023-01-29T05:54:26;4.80;98.00
19256;DHT22;9762;52.490;13.410;2023-01-29T05:56:51;4.80;97.90
19256;DHT22;9762;52.490;13.410;2023-01-29T05:59:17;4.80;97.90
19256;DHT22;9762;52.490;13.410;2023-01-29T06:01:43;4.80;97.90
19256;DHT22;9762;52.490;13.410;2023-01-29T06:04:08;4.80;98.00
19256;DHT22;9762;52.490;13.410;2023-01-29T06:06:34;4.80;98.10
19256;DHT22;9762;52.490;13.410;2023-01-29T06:08:59;4.80;98.30
19256;DHT22;9762;52.490;13.410;2023-01-29T06:11:25;4.80;98.40
19256;DHT22;9762;52.490;13.410;2023-01-29T06:13:51;4.80;98.50
19256;DHT22;9762;52.490;13.410;2023-01-29T06:16:16;4.80;98.60
19256;DHT22;9762;52.490;13.410;2023-01-29T06:18:42;4.80;98.70
19256;DHT22;9762;52.490;13.410;2023-01-29T06:21:10;4.80;98.60
19256;DHT22;9762;52.490;13.410;2023-01-29T06:23:35;4.80;98.80
19256;DHT22;9762;52.490;13.410;2023-01-29T06:26:11;4.80;98.90
19256;DHT22;9762;52.490;13.410;2023-01-29T06:28:37;4.90;98.80
19256;DHT22;9762;52.490;13.410;2023-01-29T06:31:04;4.90;98.80
19256;DHT22;9762;52.490;13.410;2023-01-29T06:33:30;4.90;98.90
19256;DHT22;9762;52.490;13.410;2023-01-29T06:36:00;4.80;98.90
19256;DHT22;9762;52.490;13.410;2023-01-29T06:38:26;4.80;99.00
19256;DHT22;9762;52.490;13.410;2023-01-29T06:40:53;4.80;99.00
19256;DHT22;9762;52.490;13.410;2023-01-29T06:43:19;4.80;99.10
19256;DHT22;9762;52.490;13.410;2023-01-29T06:45:55;4.80;99.20
19256;DHT22;9762;52.490;13.410;2023-01-29T06:48:22;4.90;99.30
19256;DHT22;9762;52.490;13.410;2023-01-29T06:50:48;4.90;99.20
19256;DHT22;9762;52.490;13.410;2023-01-29T06:53:15;4.90;99.20
19256;DHT22;9762;52.490;13.410;2023-01-29T06:55:41;4.90;99.10
19256;DHT22;9762;52.490;13.410;2023-01-29T06:58:10;4.90;99.10
19256;DHT22;9762;52.490;13.410;2023-01-29T07:00:36;4.90;99.20
19256;DHT22;9762;52.490;13.410;2023-01-29T07:03:03;5.00;99.10
19256;DHT22;9762;52.490;13.410;2023-01-29T07:05:29;5.00;99.10
19256;DHT22;9762;52.490;13.410;2023-01-29T07:07:54;5.00;99.30
19256;DHT22;9762;52.490;13.410;2023-01-29T07:10:20;5.00;98.90
19256;DHT22;9762;52.490;13.410;2023-01-29T07:12:45;4.90;99.00
19256;DHT22;9762;52.490;13.410;2023-01-29T07:15:12;4.90;99.10
19256;DHT22;9762;52.490;13.410;2023-01-29T07:17:38;4.90;99.30
19256;DHT22;9762;52.490;13.410;2023-01-29T07:20:05;4.90;99.60
19256;DHT22;9762;52.490;13.410;2023-01-29T07:22:31;5.00;99.60
19256;DHT22;9762;52.490;13.410;2023-01-29T07:24:57;5.00;99.50
19256;DHT22;9762;52.490;13.410;2023-01-29T07:27:22;5.00;99.80
19256;DHT22;9762;52.490;13.410;2023-01-29T07:29:48;5.00;99.40
19256;DHT22;9762;52.490;13.410;2023-01-29T07:32:14;5.00;99.30
19256;DHT22;9762;52.490;13.410;2023-01-29T07:34:39;5.00;99.50
19256;DHT22;9762;52.490;13.410;2023-01-29T07:37:05;5.00;99.80
19256;DHT22;9762;52.490;13.410;2023-01-29T07:39:31;5.00;99.90
19256;DHT22;9762;52.490;13.410;2023-01-29T07:41:56;5.00;99.90
19256;DHT22;9762;52.490;13.410;2023-01-29T07:44:22;5.00;99.90
19256;DHT22;9762;52.490;13.410;2023-01-29T07:46:48;5.10;99.90
19256;DHT22;9762;52.490;13.410;2023-01-29T07:49:14;5.10;99.90
19256;DHT22;9762;52.490;13.410;2023-01-29T07:51:40;5.20;99.90
19256;DHT22;9762;52.490;13.410;2023-01-29T07:54:05;5.20;99.90
19256;DHT22;9762;52.490;13.410;2023-01-29T07:56:31;5.20;99.90
19256;DHT22;9762;52.490;13.410;2023-01-29T07:58:57;5.30;99.90
19256;DHT22;9762;52.490;13.410;2023-01-29T08:01:22;5.30;99.90
19256;DHT22;9762;52.490;13.410;2023-01-29T08:03:48;5.30;99.80
19256;DHT22;9762;52.490;13.410;2023-01-29T08:06:14;5.30;99.80
19256;DHT22;9762;52.490;13.410;2023-01-29T08:08:39;5.30;99.90
19256;DHT22;9762;52.490;13.410;2023-01-29T08:11:05;5.30;99.90
19256;DHT22;9762;52.490;13.410;2023-01-29T08:13:31;5.30;99.90
19256;DHT22;9762;52.490;13.410;2023-01-29T08:16:02;5.30;99.90
19256;DHT22;9762;52.490;13.410;2023-01-29T08:18:28;5.20;99.90
19256;DHT22;9762;52.490;13.410;2023-01-29T08:21:01;5.20;99.90
19256;DHT22;9762;52.490;13.410;2023-01-29T08:23:27;5.20;99.90
19256;DHT22;9762;52.490;13.410;2023-01-29T08:25:53;5.20;99.90
19256;DHT22;9762;52.490;13.410;2023-01-29T08:28:19;5.20;99.90
19256;DHT22;9762;52.490;13.410;2023-01-29T08:30:45;5.30;99.90
19256;DHT22;9762;52.490;13.410;2023-01-29T08:33:10;5.30;99.90
19256;DHT22;9762;52.490;13.410;2023-01-29T08:35:36;5.30;99.90
19256;DHT22;9762;52.490;13.410;2023-01-29T08:38:03;5.30;99.90
19256;DHT22;9762;52.490;13.410;2023-01-29T08:40:33;5.30;99.90
19256;DHT22;9762;52.490;13.410;2023-01-29T08:43:00;5.30;99.90
19256;DHT22;9762;52.490;13.410;2023-01-29T08:45:26;5.30;99.90
19256;DHT22;9762;52.490;13.410;2023-01-29T08:47:52;5.30;99.90
19256;DHT22;9762;52.490;13.410;2023-01-29T08:50:17;5.30;99.90
19256;DHT22;9762;52.490;13.410;2023-01-29T08:52:43;5.40;99.90
19256;DHT22;9762;52.490;13.410;2023-01-29T08:55:10;5.40;99.90
19256;DHT22;9762;52.490;13.410;2023-01-29T08:57:37;5.40;99.90
19256;DHT22;9762;52.490;13.410;2023-01-29T09:00:03;5.50;99.90
19256;DHT22;9762;52.490;13.410;2023-01-29T09:02:29;5.50;99.90
19256;DHT22;9762;52.490;13.410;2023-01-29T09:04:55;5.50;99.90
19256;DHT22;9762;52.490;13.410;2023-01-29T09:07:21;5.50;99.90
19256;DHT22;9762;52.490;13.410;2023-01-29T09:09:46;5.40;99.90
19256;DHT22;9762;52.490;13.410;2023-01-29T09:12:12;5.40;99.90
19256;DHT22;9762;52.490;13.410;2023-01-29T09:14:37;5.40;99.90
19256;DHT22;9762;52.490;13.410;2023-01-29T09:17:03;5.50;99.90
19256;DHT22;9762;52.490;13.410;2023-01-29T09:19:29;5.50;99.90
19256;DHT22;9762;52.490;13.410;2023-01-29T09:21:54;5.50;99.90
19256;DHT22;9762;52.490;13.410;2023-01-29T09:24:20;5.60;99.90
19256;DHT22;9762;52.490;13.410;2023-01-29T09:26:46;5.60;99.90
19256;DHT22;9762;52.490;13.410;2023-01-29T09:29:11;5.60;99.90
19256;DHT22;9762;52.490;13.410;2023-01-29T09:31:37;5.60;99.90
19256;DHT22;9762;52.490;13.410;2023-01-29T09:34:03;5.70;99.90
19256;DHT22;9762;52.490;13.410;2023-01-29T09:36:28;5.70;99.90
19256;DHT22;9762;52.490;13.410;2023-01-29T09:38:54;5.70;99.90
19256;DHT22;9762;52.490;13.410;2023-01-29T09:41:32;5.70;99.90
19256;DHT22;9762;52.490;13.410;2023-01-29T09:44:16;5.70;99.90
19256;DHT22;9762;52.490;13.410;2023-01-29T09:46:46;5.70;99.90
19256;DHT22;9762;52.490;13.410;2023-01-29T09:51:48;5.80;99.90
19256;DHT22;9762;52.490;13.410;2023-01-29T09:54:35;5.90;99.90
19256;DHT22;9762;52.490;13.410;2023-01-29T09:57:09;6.00;99.90
19256;DHT22;9762;52.490;13.410;2023-01-29T09:59:40;6.00;99.80
19256;DHT22;9762;52.490;13.410;2023-01-29T10:13:14;6.10;99.50
19256;DHT22;9762;52.490;13.410;2023-01-29T10:15:59;6.20;99.40
19256;DHT22;9762;52.490;13.410;2023-01-29T10:23:44;6.30;99.00
19256;DHT22;9762;52.490;13.410;2023-01-29T10:26:12;6.30;98.90
19256;DHT22;9762;52.490;13.410;2023-01-29T10:28:42;6.40;99.00
19256;DHT22;9762;52.490;13.410;2023-01-29T10:31:29;6.40;99.10
19256;DHT22;9762;52.490;13.410;2023-01-29T10:36:48;6.60;98.80
19256;DHT22;9762;52.490;13.410;2023-01-29T10:39:19;6.70;98.70
19256;DHT22;9762;52.490;13.410;2023-01-29T10:52:29;7.10;97.80
19256;DHT22;9762;52.490;13.410;2023-01-29T11:00:40;7.00;97.40
19256;DHT22;9762;52.490;13.410;2023-01-29T11:03:20;7.00;97.20
19256;DHT22;9762;52.490;13.410;2023-01-29T11:08:33;7.20;97.30
19256;DHT22;9762;52.490;13.410;2023-01-29T11:11:14;7.30;97.00
19256;DHT22;9762;52.490;13.410;2023-01-29T11:13:46;7.30;96.80
19256;DHT22;9762;52.490;13.410;2023-01-29T11:16:12;7.40;96.90
19256;DHT22;9762;52.490;13.410;2023-01-29T11:18:53;7.40;96.50
19256;DHT22;9762;52.490;13.410;2023-01-29T11:21:20;7.40;96.20
19256;DHT22;9762;52.490;13.410;2023-01-29T11:23:46;7.40;96.00
19256;DHT22;9762;52.490;13.410;2023-01-29T11:26:15;7.40;95.80
19256;DHT22;9762;52.490;13.410;2023-01-29T11:28:46;7.30;95.80
19256;DHT22;9762;52.490;13.410;2023-01-29T11:31:27;7.30;96.30
19256;DHT22;9762;52.490;13.410;2023-01-29T11:34:12;7.40;96.50
19256;DHT22;9762;52.490;13.410;2023-01-29T11:36:38;7.40;96.00
19256;DHT22;9762;52.490;13.410;2023-01-29T11:39:20;7.40;95.90
19256;DHT22;9762;52.490;13.410;2023-01-29T11:41:47;7.40;96.00
19256;DHT22;9762;52.490;13.410;2023-01-29T11:44:31;7.40;96.00
19256;DHT22;9762;52.490;13.410;2023-01-29T11:47:27;7.50;95.60
19256;DHT22;9762;52.490;13.410;2023-01-29T11:52:22;7.50;95.20
19256;DHT22;9762;52.490;13.410;2023-01-29T11:54:58;7.50;95.40
19256;DHT22;9762;52.490;13.410;2023-01-29T11:57:32;7.50;95.00
19256;DHT22;9762;52.490;13.410;2023-01-29T12:05:05;7.50;95.00
19256;DHT22;9762;52.490;13.410;2023-01-29T12:07:31;7.50;95.10
19256;DHT22;9762;52.490;13.410;2023-01-29T12:09:58;7.60;95.20
19256;DHT22;9762;52.490;13.410;2023-01-29T12:12:41;7.50;94.90
19256;DHT22;9762;52.490;13.410;2023-01-29T12:17:37;7.50;94.80
19256;DHT22;9762;52.490;13.410;2023-01-29T12:20:11;7.50;94.70
19256;DHT22;9762;52.490;13.410;2023-01-29T12:22:46;7.50;94.80
19256;DHT22;9762;52.490;13.410;2023-01-29T12:28:43;7.50;94.80
19256;DHT22;9762;52.490;13.410;2023-01-29T12:33:55;7.60;94.90
19256;DHT22;9762;52.490;13.410;2023-01-29T12:36:45;7.60;94.80
19256;DHT22;9762;52.490;13.410;2023-01-29T12:39:18;7.70;94.90
19256;DHT22;9762;52.490;13.410;2023-01-29T12:41:49;7.70;94.70
19256;DHT22;9762;52.490;13.410;2023-01-29T12:44:24;7.80;94.60
19256;DHT22;9762;52.490;13.410;2023-01-29T12:46:58;7.70;94.40
19256;DHT22;9762;52.490;13.410;2023-01-29T12:49:28;7.70;94.30
19256;DHT22;9762;52.490;13.410;2023-01-29T12:57:23;7.60;94.50
19256;DHT22;9762;52.490;13.410;2023-01-29T13:00:02;7.50;94.40
19256;DHT22;9762;52.490;13.410;2023-01-29T13:07:51;7.60;94.60
19256;DHT22;9762;52.490;13.410;2023-01-29T13:10:24;7.70;94.50
19256;DHT22;9762;52.490;13.410;2023-01-29T13:12:57;7.70;94.40
19256;DHT22;9762;52.490;13.410;2023-01-29T13:15:35;7.70;94.30
19256;DHT22;9762;52.490;13.410;2023-01-29T13:20:45;7.60;94.40
19256;DHT22;9762;52.490;13.410;2023-01-29T13:23:20;7.60;94.30
19256;DHT22;9762;52.490;13.410;2023-01-29T13:25:51;7.50;94.50
19256;DHT22;9762;52.490;13.410;2023-01-29T13:28:19;7.50;94.50
19256;DHT22;9762;52.490;13.410;2023-01-29T13:30:46;7.50;94.60
19256;DHT22;9762;52.490;13.410;2023-01-29T13:33:32;7.50;94.70
19256;DHT22;9762;52.490;13.410;2023-01-29T13:35:58;7.50;94.60
19256;DHT22;9762;52.490;13.410;2023-01-29T13:38:28;7.40;94.60
19256;DHT22;9762;52.490;13.410;2023-01-29T13:41:01;7.40;94.60
19256;DHT22;9762;52.490;13.410;2023-01-29T13:43:34;7.40;94.70
19256;DHT22;9762;52.490;13.410;2023-01-29T13:46:08;7.40;94.80
19256;DHT22;9762;52.490;13.410;2023-01-29T13:48:41;7.40;94.90
19256;DHT22;9762;52.490;13.410;2023-01-29T13:51:11;7.30;95.00
19256;DHT22;9762;52.490;13.410;2023-01-29T13:53:41;7.30;95.00
19256;DHT22;9762;52.490;13.410;2023-01-29T13:58:59;7.20;95.10
19256;DHT22;9762;52.490;13.410;2023-01-29T14:06:54;7.20;95.30
19256;DHT22;9762;52.490;13.410;2023-01-29T14:12:29;7.10;95.60
19256;DHT22;9762;52.490;13.410;2023-01-29T14:17:22;7.00;95.90
19256;DHT22;9762;52.490;13.410;2023-01-29T14:19:51;7.00;96.10
19256;DHT22;9762;52.490;13.410;2023-01-29T14:22:20;6.90;96.30
19256;DHT22;9762;52.490;13.410;2023-01-29T14:24:47;6.90;96.50
19256;DHT22;9762;52.490;13.410;2023-01-29T14:27:21;7.00;96.80
19256;DHT22;9762;52.490;13.410;2023-01-29T14:29:47;7.00;97.00
19256;DHT22;9762;52.490;13.410;2023-01-29T14:32:13;7.00;97.00
19256;DHT22;9762;52.490;13.410;2023-01-29T14:39:49;7.00;97.30
19256;DHT22;9762;52.490;13.410;2023-01-29T14:45:07;7.00;97.60
19256;DHT22;9762;52.490;13.410;2023-01-29T14:50:00;6.90;98.20
19256;DHT22;9762;52.490;13.410;2023-01-29T14:52:39;6.90;98.10
19256;DHT22;9762;52.490;13.410;2023-01-29T14:55:19;6.90;98.30
19256;DHT22;9762;52.490;13.410;2023-01-29T14:57:48;6.90;98.40
19256;DHT22;9762;52.490;13.410;2023-01-29T15:00:42;6.90;98.20
19256;DHT22;9762;52.490;13.410;2023-01-29T15:03:42;6.90;98.20
19256;DHT22;9762;52.490;13.410;2023-01-29T15:06:06;6.80;98.30
19256;DHT22;9762;52.490;13.410;2023-01-29T15:08:42;6.80;98.80
19256;DHT22;9762;52.490;13.410;2023-01-29T15:11:31;6.70;98.80
19256;DHT22;9762;52.490;13.410;2023-01-29T15:14:23;6.70;98.90
19256;DHT22;9762;52.490;13.410;2023-01-29T15:17:14;6.60;98.90
19256;DHT22;9762;52.490;13.410;2023-01-29T15:19:45;6.50;99.10
19256;DHT22;9762;52.490;13.410;2023-01-29T15:22:19;6.50;99.40
19256;DHT22;9762;52.490;13.410;2023-01-29T15:25:00;6.50;99.50
19256;DHT22;9762;52.490;13.410;2023-01-29T15:27:26;6.50;99.60
19256;DHT22;9762;52.490;13.410;2023-01-29T15:29:58;6.40;99.70
19256;DHT22;9762;52.490;13.410;2023-01-29T15:32:32;6.50;99.90
19256;DHT22;9762;52.490;13.410;2023-01-29T15:34:59;6.50;99.80
19256;DHT22;9762;52.490;13.410;2023-01-29T15:37:32;6.50;99.80
19256;DHT22;9762;52.490;13.410;2023-01-29T15:39:58;6.40;99.60
19256;DHT22;9762;52.490;13.410;2023-01-29T15:42:29;6.40;99.70
19256;DHT22;9762;52.490;13.410;2023-01-29T15:48:02;6.30;99.50
19256;DHT22;9762;52.490;13.410;2023-01-29T15:50:30;6.20;99.50
19256;DHT22;9762;52.490;13.410;2023-01-29T15:52:59;6.20;99.80
19256;DHT22;9762;52.490;13.410;2023-01-29T15:55:26;6.20;99.90
19256;DHT22;9762;52.490;13.410;2023-01-29T15:57:52;6.20;99.80
19256;DHT22;9762;52.490;13.410;2023-01-29T16:00:23;6.20;99.80
19256;DHT22;9762;52.490;13.410;2023-01-29T16:02:50;6.20;99.70
19256;DHT22;9762;52.490;13.410;2023-01-29T16:05:18;6.30;99.70
19256;DHT22;9762;52.490;13.410;2023-01-29T16:07:47;6.30;99.60
19256;DHT22;9762;52.490;13.410;2023-01-29T16:10:17;6.30;99.60
19256;DHT22;9762;52.490;13.410;2023-01-29T16:12:44;6.20;99.60
19256;DHT22;9762;52.490;13.410;2023-01-29T16:15:36;6.30;99.70
19256;DHT22;9762;52.490;13.410;2023-01-29T16:18:32;6.20;99.50
19256;DHT22;9762;52.490;13.410;2023-01-29T16:21:04;6.20;99.70
19256;DHT22;9762;52.490;13.410;2023-01-29T16:23:41;6.20;99.60
19256;DHT22;9762;52.490;13.410;2023-01-29T16:26:13;6.20;99.70
19256;DHT22;9762;52.490;13.410;2023-01-29T16:28:41;6.20;99.80
19256;DHT22;9762;52.490;13.410;2023-01-29T16:31:09;6.20;99.80
19256;DHT22;9762;52.490;13.410;2023-01-29T16:33:37;6.20;99.70
19256;DHT22;9762;52.490;13.410;2023-01-29T16:36:17;6.20;99.70
19256;DHT22;9762;52.490;13.410;2023-01-29T16:39:04;6.20;99.80
19256;DHT22;9762;52.490;13.410;2023-01-29T16:41:35;6.20;99.70
19256;DHT22;9762;52.490;13.410;2023-01-29T16:44:33;6.20;99.60
19256;DHT22;9762;52.490;13.410;2023-01-29T16:47:19;6.10;99.90
19256;DHT22;9762;52.490;13.410;2023-01-29T16:49:49;6.10;99.70
19256;DHT22;9762;52.490;13.410;2023-01-29T16:55:18;6.10;99.70
19256;DHT22;9762;52.490;13.410;2023-01-29T16:57:50;6.10;99.70
19256;DHT22;9762;52.490;13.410;2023-01-29T17:00:21;6.10;99.80
19256;DHT22;9762;52.490;13.410;2023-01-29T17:02:50;6.10;99.80
19256;DHT22;9762;52.490;13.410;2023-01-29T17:05:22;6.10;99.70
19256;DHT22;9762;52.490;13.410;2023-01-29T17:07:50;6.10;99.60
19256;DHT22;9762;52.490;13.410;2023-01-29T17:10:17;6.10;99.60
19256;DHT22;9762;52.490;13.410;2023-01-29T17:12:53;6.10;99.60
19256;DHT22;9762;52.490;13.410;2023-01-29T17:15:41;6.10;99.60
19256;DHT22;9762;52.490;13.410;2023-01-29T17:18:18;6.10;99.50
19256;DHT22;9762;52.490;13.410;2023-01-29T17:20:43;6.00;99.50
19256;DHT22;9762;52.490;13.410;2023-01-29T17:23:09;5.90;99.60
19256;DHT22;9762;52.490;13.410;2023-01-29T17:25:35;5.90;99.70
19256;DHT22;9762;52.490;13.410;2023-01-29T17:28:01;5.90;99.80
19256;DHT22;9762;52.490;13.410;2023-01-29T17:30:30;5.90;99.80
19256;DHT22;9762;52.490;13.410;2023-01-29T17:32:58;5.80;99.90
19256;DHT22;9762;52.490;13.410;2023-01-29T17:35:23;5.80;99.90
19256;DHT22;9762;52.490;13.410;2023-01-29T17:37:49;5.80;99.90
19256;DHT22;9762;52.490;13.410;2023-01-29T17:40:28;5.80;99.90
19256;DHT22;9762;52.490;13.410;2023-01-29T17:42:57;6.00;99.90
19256;DHT22;9762;52.490;13.410;2023-01-29T17:45:22;5.80;99.90
19256;DHT22;9762;52.490;13.410;2023-01-29T17:47:48;5.70;99.90
19256;DHT22;9762;52.490;13.410;2023-01-29T17:50:21;5.70;99.90
19256;DHT22;9762;52.490;13.410;2023-01-29T17:52:48;5.70;99.90
19256;DHT22;9762;52.490;13.410;2023-01-29T17:55:14;5.70;99.90
19256;DHT22;9762;52.490;13.410;2023-01-29T17:57:40;5.70;99.90
19256;DHT22;9762;52.490;13.410;2023-01-29T18:00:26;5.70;99.90
19256;DHT22;9762;52.490;13.410;2023-01-29T18:02:51;5.60;99.90
19256;DHT22;9762;52.490;13.410;2023-01-29T18:05:17;5.60;99.90
19256;DHT22;9762;52.490;13.410;2023-01-29T18:07:44;5.60;99.90
19256;DHT22;9762;52.490;13.410;2023-01-29T18:10:16;5.60;99.90
19256;DHT22;9762;52.490;13.410;2023-01-29T18:12:42;5.60;99.90
19256;DHT22;9762;52.490;13.410;2023-01-29T18:15:08;5.60;99.90
19256;DHT22;9762;52.490;13.410;2023-01-29T18:17:35;5.60;99.90
19256;DHT22;9762;52.490;13.410;2023-01-29T18:20:01;5.60;99.90
19256;DHT22;9762;52.490;13.410;2023-01-29T18:22:27;5.60;99.90
19256;DHT22;9762;52.490;13.410;2023-01-29T18:24:52;5.60;99.90
19256;DHT22;9762;52.490;13.410;2023-01-29T18:27:18;5.50;99.90
19256;DHT22;9762;52.490;13.410;2023-01-29T18:29:44;5.60;99.90
19256;DHT22;9762;52.490;13.410;2023-01-29T18:32:10;5.60;99.90
19256;DHT22;9762;52.490;13.410;2023-01-29T18:34:36;5.60;99.90
19256;DHT22;9762;52.490;13.410;2023-01-29T18:37:02;5.60;99.90
19256;DHT22;9762;52.490;13.410;2023-01-29T18:39:27;5.60;99.90